sensor_id;sensor_type;location;lat;lon;timestamp;P1;durP1;ratioP1;P2;durP2;ratioP2
20379;SDS011;10349;48.666;8.948;2022-08-21T00:01:45;2.50;;;2.30;;
20379;SDS011;10349;48.666;8.948;2022-08-21T00:04:11;2.20;;;2.10;;
20379;SDS011;10349;48.666;8.948;2022-08-21T00:06:37;3.73;;;2.13;;
20379;SDS011;10349;48.666;8.948;2022-08-21T00:09:04;2.30;;;2.20;;
20379;SDS011;10349;48.666;8.948;2022-08-21T00:11:33;3.10;;;2.87;;
20379;SDS011;10349;48.666;8.948;2022-08-21T00:14:00;2.30;;;2.20;;
20379;SDS011;10349;48.666;8.948;2022-08-21T00:16:25;2.60;;;2.40;;
20379;SDS011;10349;48.666;8.948;2022-08-21T00:18:51;3.97;;;3.27;;
20379;SDS011;10349;48.666;8.948;2022-08-21T00:21:17;2.17;;;1.97;;
20379;SDS011;10349;48.666;8.948;2022-08-21T00:23:43;3.47;;;2.60;;
20379;SDS011;10349;48.666;8.948;2022-08-21T00:26:08;5.50;;;2.43;;
20379;SDS011;10349;48.666;8.948;2022-08-21T00:28:34;2.37;;;2.27;;
20379;SDS011;10349;48.666;8.948;2022-08-21T00:31:00;2.80;;;2.20;;
20379;SDS011;10349;48.666;8.948;2022-08-21T00:33:29;7.70;;;2.70;;
20379;SDS011;10349;48.666;8.948;2022-08-21T00:35:55;2.63;;;2.43;;
20379;SDS011;10349;48.666;8.948;2022-08-21T00:38:21;4.13;;;3.03;;
20379;SDS011;10349;48.666;8.948;2022-08-21T00:40:49;2.70;;;2.50;;
20379;SDS011;10349;48.666;8.948;2022-08-21T00:43:20;3.80;;;2.30;;
20379;SDS011;10349;48.666;8.948;2022-08-21T00:45:48;2.90;;;2.70;;
20379;SDS011;10349;48.666;8.948;2022-08-21T00:48:14;2.47;;;2.33;;
20379;SDS011;10349;48.666;8.948;2022-08-21T00:50:43;5.90;;;2.97;;
20379;SDS011;10349;48.666;8.948;2022-08-21T00:53:13;3.00;;;2.80;;
20379;SDS011;10349;48.666;8.948;2022-08-21T00:55:39;3.30;;;3.00;;
20379;SDS011;10349;48.666;8.948;2022-08-21T00:58:06;2.90;;;2.40;;
20379;SDS011;10349;48.666;8.948;2022-08-21T01:00:36;3.23;;;2.53;;
20379;SDS011;10349;48.666;8.948;2022-08-21T01:03:12;6.03;;;3.43;;
20379;SDS011;10349;48.666;8.948;2022-08-21T01:05:40;3.50;;;3.30;;
20379;SDS011;10349;48.666;8.948;2022-08-21T01:08:07;3.30;;;3.10;;
20379;SDS011;10349;48.666;8.948;2022-08-21T01:10:34;4.10;;;3.37;;
20379;SDS011;10349;48.666;8.948;2022-08-21T01:13:01;3.37;;;3.17;;
20379;SDS011;10349;48.666;8.948;2022-08-21T01:15:29;2.73;;;2.60;;
20379;SDS011;10349;48.666;8.948;2022-08-21T01:17:58;3.63;;;2.97;;
20379;SDS011;10349;48.666;8.948;2022-08-21T01:20:24;3.33;;;3.13;;
20379;SDS011;10349;48.666;8.948;2022-08-21T01:22:50;3.17;;;2.80;;
20379;SDS011;10349;48.666;8.948;2022-08-21T01:25:16;2.83;;;2.63;;
20379;SDS011;10349;48.666;8.948;2022-08-21T01:27:44;3.70;;;3.30;;
20379;SDS011;10349;48.666;8.948;2022-08-21T01:30:12;3.03;;;2.83;;
20379;SDS011;10349;48.666;8.948;2022-08-21T01:32:41;3.53;;;3.33;;
20379;SDS011;10349;48.666;8.948;2022-08-21T01:35:07;3.47;;;3.20;;
20379;SDS011;10349;48.666;8.948;2022-08-21T01:37:34;3.23;;;2.93;;
20379;SDS011;10349;48.666;8.948;2022-08-21T01:40:00;3.03;;;2.60;;
20379;SDS011;10349;48.666;8.948;2022-08-21T01:42:26;3.60;;;2.83;;
20379;SDS011;10349;48.666;8.948;2022-08-21T01:44:52;3.90;;;2.80;;
20379;SDS011;10349;48.666;8.948;2022-08-21T01:47:18;3.57;;;3.27;;
20379;SDS011;10349;48.666;8.948;2022-08-21T01:49:44;4.93;;;3.50;;
20379;SDS011;10349;48.666;8.948;2022-08-21T01:52:10;3.47;;;3.20;;
20379;SDS011;10349;48.666;8.948;2022-08-21T01:54:37;3.07;;;2.87;;
20379;SDS011;10349;48.666;8.948;2022-08-21T01:57:03;3.50;;;3.30;;
20379;SDS011;10349;48.666;8.948;2022-08-21T01:59:29;3.20;;;2.90;;
20379;SDS011;10349;48.666;8.948;2022-08-21T02:01:55;3.40;;;2.47;;
20379;SDS011;10349;48.666;8.948;2022-08-21T02:04:20;3.40;;;3.10;;
20379;SDS011;10349;48.666;8.948;2022-08-21T02:06:47;3.20;;;3.00;;
20379;SDS011;10349;48.666;8.948;2022-08-21T02:09:13;3.20;;;3.00;;
20379;SDS011;10349;48.666;8.948;2022-08-21T02:11:40;2.73;;;2.53;;
20379;SDS011;10349;48.666;8.948;2022-08-21T02:14:10;4.63;;;3.07;;
20379;SDS011;10349;48.666;8.948;2022-08-21T02:16:38;3.23;;;3.03;;
20379;SDS011;10349;48.666;8.948;2022-08-21T02:19:04;4.40;;;2.80;;
20379;SDS011;10349;48.666;8.948;2022-08-21T02:21:30;3.07;;;2.80;;
20379;SDS011;10349;48.666;8.948;2022-08-21T02:23:56;3.70;;;3.40;;
20379;SDS011;10349;48.666;8.948;2022-08-21T02:26:22;3.37;;;3.07;;
20379;SDS011;10349;48.666;8.948;2022-08-21T02:28:48;3.50;;;3.30;;
20379;SDS011;10349;48.666;8.948;2022-08-21T02:31:13;3.10;;;2.90;;
20379;SDS011;10349;48.666;8.948;2022-08-21T02:33:39;3.17;;;2.97;;
20379;SDS011;10349;48.666;8.948;2022-08-21T02:36:05;2.73;;;2.53;;
20379;SDS011;10349;48.666;8.948;2022-08-21T02:38:33;5.10;;;2.97;;
20379;SDS011;10349;48.666;8.948;2022-08-21T02:41:04;3.40;;;3.10;;
20379;SDS011;10349;48.666;8.948;2022-08-21T02:43:30;3.50;;;3.03;;
20379;SDS011;10349;48.666;8.948;2022-08-21T02:45:57;2.93;;;2.63;;
20379;SDS011;10349;48.666;8.948;2022-08-21T02:48:24;3.70;;;2.73;;
20379;SDS011;10349;48.666;8.948;2022-08-21T02:50:53;4.33;;;3.97;;
20379;SDS011;10349;48.666;8.948;2022-08-21T02:53:39;5.40;;;3.27;;
20379;SDS011;10349;48.666;8.948;2022-08-21T02:56:07;3.97;;;2.80;;
20379;SDS011;10349;48.666;8.948;2022-08-21T02:58:35;3.43;;;3.07;;
20379;SDS011;10349;48.666;8.948;2022-08-21T03:01:05;3.70;;;3.40;;
20379;SDS011;10349;48.666;8.948;2022-08-21T03:03:34;3.70;;;3.50;;
20379;SDS011;10349;48.666;8.948;2022-08-21T03:06:01;3.63;;;3.33;;
20379;SDS011;10349;48.666;8.948;2022-08-21T03:08:28;3.63;;;3.33;;
20379;SDS011;10349;48.666;8.948;2022-08-21T03:10:54;4.00;;;3.70;;
20379;SDS011;10349;48.666;8.948;2022-08-21T03:13:20;3.57;;;3.30;;
20379;SDS011;10349;48.666;8.948;2022-08-21T03:15:47;4.70;;;3.17;;
20379;SDS011;10349;48.666;8.948;2022-08-21T03:18:13;3.77;;;3.43;;
20379;SDS011;10349;48.666;8.948;2022-08-21T03:20:40;4.50;;;3.47;;
20379;SDS011;10349;48.666;8.948;2022-08-21T03:23:07;3.90;;;3.60;;
20379;SDS011;10349;48.666;8.948;2022-08-21T03:25:33;3.57;;;3.27;;
20379;SDS011;10349;48.666;8.948;2022-08-21T03:28:00;3.50;;;3.30;;
20379;SDS011;10349;48.666;8.948;2022-08-21T03:30:27;3.13;;;2.97;;
20379;SDS011;10349;48.666;8.948;2022-08-21T03:32:53;3.10;;;2.90;;
20379;SDS011;10349;48.666;8.948;2022-08-21T03:35:19;6.30;;;3.80;;
20379;SDS011;10349;48.666;8.948;2022-08-21T03:37:45;4.53;;;3.07;;
20379;SDS011;10349;48.666;8.948;2022-08-21T03:40:13;3.10;;;2.83;;
20379;SDS011;10349;48.666;8.948;2022-08-21T03:42:40;3.63;;;3.20;;
20379;SDS011;10349;48.666;8.948;2022-08-21T03:45:06;3.73;;;3.20;;
20379;SDS011;10349;48.666;8.948;2022-08-21T03:47:32;3.67;;;3.47;;
20379;SDS011;10349;48.666;8.948;2022-08-21T03:49:58;4.17;;;3.77;;
20379;SDS011;10349;48.666;8.948;2022-08-21T03:52:24;3.00;;;2.80;;
20379;SDS011;10349;48.666;8.948;2022-08-21T03:54:50;3.97;;;3.63;;
20379;SDS011;10349;48.666;8.948;2022-08-21T03:57:16;3.63;;;3.20;;
20379;SDS011;10349;48.666;8.948;2022-08-21T03:59:41;3.87;;;3.57;;
20379;SDS011;10349;48.666;8.948;2022-08-21T04:02:08;3.27;;;3.07;;
20379;SDS011;10349;48.666;8.948;2022-08-21T04:04:34;3.33;;;3.13;;
20379;SDS011;10349;48.666;8.948;2022-08-21T04:07:00;5.43;;;4.30;;
20379;SDS011;10349;48.666;8.948;2022-08-21T04:09:26;3.80;;;3.60;;
20379;SDS011;10349;48.666;8.948;2022-08-21T04:11:52;4.97;;;4.57;;
20379;SDS011;10349;48.666;8.948;2022-08-21T04:14:19;4.73;;;3.40;;
20379;SDS011;10349;48.666;8.948;2022-08-21T04:16:45;4.67;;;4.00;;
20379;SDS011;10349;48.666;8.948;2022-08-21T04:19:11;3.70;;;3.40;;
20379;SDS011;10349;48.666;8.948;2022-08-21T04:21:41;3.27;;;2.83;;
20379;SDS011;10349;48.666;8.948;2022-08-21T04:24:08;4.10;;;3.70;;
20379;SDS011;10349;48.666;8.948;2022-08-21T04:26:35;3.90;;;3.00;;
20379;SDS011;10349;48.666;8.948;2022-08-21T04:29:02;3.37;;;3.07;;
20379;SDS011;10349;48.666;8.948;2022-08-21T04:31:31;3.40;;;2.90;;
20379;SDS011;10349;48.666;8.948;2022-08-21T04:33:57;3.53;;;3.33;;
20379;SDS011;10349;48.666;8.948;2022-08-21T04:36:24;3.70;;;3.50;;
20379;SDS011;10349;48.666;8.948;2022-08-21T04:38:49;3.43;;;2.97;;
20379;SDS011;10349;48.666;8.948;2022-08-21T04:41:15;3.70;;;3.40;;
20379;SDS011;10349;48.666;8.948;2022-08-21T04:43:41;3.23;;;3.03;;
20379;SDS011;10349;48.666;8.948;2022-08-21T04:46:07;3.17;;;2.97;;
20379;SDS011;10349;48.666;8.948;2022-08-21T04:48:33;4.03;;;3.73;;
20379;SDS011;10349;48.666;8.948;2022-08-21T04:55:56;3.77;;;3.57;;
20379;SDS011;10349;48.666;8.948;2022-08-21T04:58:25;3.87;;;3.60;;
20379;SDS011;10349;48.666;8.948;2022-08-21T05:00:53;3.97;;;3.67;;
20379;SDS011;10349;48.666;8.948;2022-08-21T05:03:20;3.70;;;3.40;;
20379;SDS011;10349;48.666;8.948;2022-08-21T05:05:47;6.80;;;4.80;;
20379;SDS011;10349;48.666;8.948;2022-08-21T05:08:15;4.67;;;4.27;;
20379;SDS011;10349;48.666;8.948;2022-08-21T05:10:42;4.43;;;4.13;;
20379;SDS011;10349;48.666;8.948;2022-08-21T05:13:09;4.40;;;4.10;;
20379;SDS011;10349;48.666;8.948;2022-08-21T05:15:38;5.00;;;4.40;;
20379;SDS011;10349;48.666;8.948;2022-08-21T05:18:04;5.30;;;4.80;;
20379;SDS011;10349;48.666;8.948;2022-08-21T05:20:31;4.00;;;3.70;;
20379;SDS011;10349;48.666;8.948;2022-08-21T05:22:59;4.03;;;3.73;;
20379;SDS011;10349;48.666;8.948;2022-08-21T05:25:26;4.80;;;4.40;;
20379;SDS011;10349;48.666;8.948;2022-08-21T05:27:52;3.90;;;3.60;;
20379;SDS011;10349;48.666;8.948;2022-08-21T05:30:19;4.73;;;4.30;;
20379;SDS011;10349;48.666;8.948;2022-08-21T05:32:45;4.33;;;4.10;;
20379;SDS011;10349;48.666;8.948;2022-08-21T05:35:11;5.43;;;4.60;;
20379;SDS011;10349;48.666;8.948;2022-08-21T05:37:36;4.67;;;4.30;;
20379;SDS011;10349;48.666;8.948;2022-08-21T05:40:02;4.60;;;4.30;;
20379;SDS011;10349;48.666;8.948;2022-08-21T05:42:29;4.70;;;4.40;;
20379;SDS011;10349;48.666;8.948;2022-08-21T05:44:55;4.40;;;4.00;;
20379;SDS011;10349;48.666;8.948;2022-08-21T05:47:21;4.80;;;4.40;;
20379;SDS011;10349;48.666;8.948;2022-08-21T05:49:46;4.50;;;4.20;;
20379;SDS011;10349;48.666;8.948;2022-08-21T05:52:17;4.50;;;4.20;;
20379;SDS011;10349;48.666;8.948;2022-08-21T05:54:44;4.70;;;4.30;;
20379;SDS011;10349;48.666;8.948;2022-08-21T05:57:10;6.57;;;4.40;;
20379;SDS011;10349;48.666;8.948;2022-08-21T05:59:35;5.00;;;4.33;;
20379;SDS011;10349;48.666;8.948;2022-08-21T06:02:02;6.90;;;4.80;;
20379;SDS011;10349;48.666;8.948;2022-08-21T06:04:29;10.30;;;4.90;;
20379;SDS011;10349;48.666;8.948;2022-08-21T06:06:54;4.73;;;4.43;;
20379;SDS011;10349;48.666;8.948;2022-08-21T06:09:20;7.03;;;4.63;;
20379;SDS011;10349;48.666;8.948;2022-08-21T06:11:46;5.83;;;5.30;;
20379;SDS011;10349;48.666;8.948;2022-08-21T06:14:13;5.10;;;4.57;;
20379;SDS011;10349;48.666;8.948;2022-08-21T06:16:39;4.87;;;4.57;;
20379;SDS011;10349;48.666;8.948;2022-08-21T06:19:05;5.10;;;4.60;;
20379;SDS011;10349;48.666;8.948;2022-08-21T06:21:31;4.80;;;4.10;;
20379;SDS011;10349;48.666;8.948;2022-08-21T06:23:56;5.77;;;3.73;;
20379;SDS011;10349;48.666;8.948;2022-08-21T06:26:22;5.27;;;3.90;;
20379;SDS011;10349;48.666;8.948;2022-08-21T06:28:48;4.00;;;3.67;;
20379;SDS011;10349;48.666;8.948;2022-08-21T06:31:15;4.37;;;3.73;;
20379;SDS011;10349;48.666;8.948;2022-08-21T06:33:50;11.30;;;3.80;;
20379;SDS011;10349;48.666;8.948;2022-08-21T06:36:17;3.93;;;3.63;;
20379;SDS011;10349;48.666;8.948;2022-08-21T06:38:44;3.93;;;3.70;;
20379;SDS011;10349;48.666;8.948;2022-08-21T06:41:10;3.90;;;3.60;;
20379;SDS011;10349;48.666;8.948;2022-08-21T06:43:36;3.90;;;3.60;;
20379;SDS011;10349;48.666;8.948;2022-08-21T06:46:02;7.37;;;3.67;;
20379;SDS011;10349;48.666;8.948;2022-08-21T06:48:28;6.33;;;3.63;;
20379;SDS011;10349;48.666;8.948;2022-08-21T06:50:55;4.43;;;4.13;;
20379;SDS011;10349;48.666;8.948;2022-08-21T06:53:21;3.70;;;3.40;;
20379;SDS011;10349;48.666;8.948;2022-08-21T06:55:47;3.40;;;3.10;;
20379;SDS011;10349;48.666;8.948;2022-08-21T06:58:13;5.70;;;4.17;;
20379;SDS011;10349;48.666;8.948;2022-08-21T07:00:41;4.60;;;4.20;;
20379;SDS011;10349;48.666;8.948;2022-08-21T07:03:15;3.43;;;3.13;;
20379;SDS011;10349;48.666;8.948;2022-08-21T07:05:43;4.40;;;3.67;;
20379;SDS011;10349;48.666;8.948;2022-08-21T07:08:08;4.47;;;4.07;;
20379;SDS011;10349;48.666;8.948;2022-08-21T07:10:34;3.60;;;3.30;;
20379;SDS011;10349;48.666;8.948;2022-08-21T07:13:00;4.13;;;3.73;;
20379;SDS011;10349;48.666;8.948;2022-08-21T07:15:26;5.87;;;3.77;;
20379;SDS011;10349;48.666;8.948;2022-08-21T07:17:54;12.27;;;3.57;;
20379;SDS011;10349;48.666;8.948;2022-08-21T07:20:20;3.90;;;3.17;;
20379;SDS011;10349;48.666;8.948;2022-08-21T07:22:45;3.80;;;3.50;;
20379;SDS011;10349;48.666;8.948;2022-08-21T07:25:11;4.93;;;4.10;;
20379;SDS011;10349;48.666;8.948;2022-08-21T07:27:37;4.17;;;3.87;;
20379;SDS011;10349;48.666;8.948;2022-08-21T07:30:03;6.17;;;3.63;;
20379;SDS011;10349;48.666;8.948;2022-08-21T07:32:30;5.30;;;3.60;;
20379;SDS011;10349;48.666;8.948;2022-08-21T07:34:56;5.33;;;4.27;;
20379;SDS011;10349;48.666;8.948;2022-08-21T07:37:22;4.70;;;4.30;;
20379;SDS011;10349;48.666;8.948;2022-08-21T07:39:47;7.43;;;3.37;;
20379;SDS011;10349;48.666;8.948;2022-08-21T07:42:14;4.00;;;3.63;;
20379;SDS011;10349;48.666;8.948;2022-08-21T07:44:42;4.83;;;4.27;;
20379;SDS011;10349;48.666;8.948;2022-08-21T07:47:08;4.30;;;3.90;;
20379;SDS011;10349;48.666;8.948;2022-08-21T07:49:34;4.23;;;3.87;;
20379;SDS011;10349;48.666;8.948;2022-08-21T07:52:00;3.83;;;3.53;;
20379;SDS011;10349;48.666;8.948;2022-08-21T07:54:26;7.90;;;3.97;;
20379;SDS011;10349;48.666;8.948;2022-08-21T07:56:51;4.90;;;3.93;;
20379;SDS011;10349;48.666;8.948;2022-08-21T07:59:17;4.90;;;3.43;;
20379;SDS011;10349;48.666;8.948;2022-08-21T08:01:43;6.07;;;3.87;;
20379;SDS011;10349;48.666;8.948;2022-08-21T08:04:08;4.33;;;3.77;;
20379;SDS011;10349;48.666;8.948;2022-08-21T08:06:34;7.37;;;4.00;;
20379;SDS011;10349;48.666;8.948;2022-08-21T08:09:00;4.20;;;3.90;;
20379;SDS011;10349;48.666;8.948;2022-08-21T08:11:28;6.73;;;3.90;;
20379;SDS011;10349;48.666;8.948;2022-08-21T08:13:54;4.37;;;3.30;;
20379;SDS011;10349;48.666;8.948;2022-08-21T08:16:22;4.90;;;3.50;;
20379;SDS011;10349;48.666;8.948;2022-08-21T08:18:48;3.93;;;3.53;;
20379;SDS011;10349;48.666;8.948;2022-08-21T08:21:14;4.80;;;3.20;;
20379;SDS011;10349;48.666;8.948;2022-08-21T08:23:39;3.50;;;3.23;;
20379;SDS011;10349;48.666;8.948;2022-08-21T08:26:05;4.40;;;4.00;;
20379;SDS011;10349;48.666;8.948;2022-08-21T08:28:31;6.83;;;3.73;;
20379;SDS011;10349;48.666;8.948;2022-08-21T08:31:00;4.93;;;3.60;;
20379;SDS011;10349;48.666;8.948;2022-08-21T08:33:26;3.47;;;3.20;;
20379;SDS011;10349;48.666;8.948;2022-08-21T08:35:52;4.10;;;3.87;;
20379;SDS011;10349;48.666;8.948;2022-08-21T08:38:19;5.07;;;3.03;;
20379;SDS011;10349;48.666;8.948;2022-08-21T08:43:16;6.00;;;3.40;;
20379;SDS011;10349;48.666;8.948;2022-08-21T08:45:43;3.10;;;2.80;;
20379;SDS011;10349;48.666;8.948;2022-08-21T08:48:13;6.73;;;3.40;;
20379;SDS011;10349;48.666;8.948;2022-08-21T08:50:56;5.17;;;3.40;;
20379;SDS011;10349;48.666;8.948;2022-08-21T08:53:29;4.30;;;3.90;;
20379;SDS011;10349;48.666;8.948;2022-08-21T08:55:57;4.80;;;3.00;;
20379;SDS011;10349;48.666;8.948;2022-08-21T08:58:32;4.60;;;3.07;;
20379;SDS011;10349;48.666;8.948;2022-08-21T09:01:01;3.80;;;3.10;;
20379;SDS011;10349;48.666;8.948;2022-08-21T09:03:35;3.80;;;3.50;;
20379;SDS011;10349;48.666;8.948;2022-08-21T09:13:45;6.33;;;3.77;;
20379;SDS011;10349;48.666;8.948;2022-08-21T09:19:07;2.90;;;2.70;;
20379;SDS011;10349;48.666;8.948;2022-08-21T09:24:35;3.40;;;3.17;;
20379;SDS011;10349;48.666;8.948;2022-08-21T09:27:13;5.73;;;2.93;;
20379;SDS011;10349;48.666;8.948;2022-08-21T09:29:43;3.40;;;3.17;;
20379;SDS011;10349;48.666;8.948;2022-08-21T09:32:17;3.10;;;2.90;;
20379;SDS011;10349;48.666;8.948;2022-08-21T09:37:29;2.83;;;2.63;;
20379;SDS011;10349;48.666;8.948;2022-08-21T09:39:57;3.60;;;2.73;;
20379;SDS011;10349;48.666;8.948;2022-08-21T09:42:32;4.20;;;2.90;;
20379;SDS011;10349;48.666;8.948;2022-08-21T09:45:06;5.83;;;2.73;;
20379;SDS011;10349;48.666;8.948;2022-08-21T09:47:34;3.43;;;2.60;;
20379;SDS011;10349;48.666;8.948;2022-08-21T09:50:11;4.17;;;3.73;;
20379;SDS011;10349;48.666;8.948;2022-08-21T09:52:54;3.70;;;3.03;;
20379;SDS011;10349;48.666;8.948;2022-08-21T09:58:18;4.60;;;2.80;;
20379;SDS011;10349;48.666;8.948;2022-08-21T10:00:45;3.13;;;2.90;;
20379;SDS011;10349;48.666;8.948;2022-08-21T10:03:23;3.30;;;3.10;;
20379;SDS011;10349;48.666;8.948;2022-08-21T10:05:58;4.37;;;3.40;;
20379;SDS011;10349;48.666;8.948;2022-08-21T10:08:32;6.70;;;3.80;;
20379;SDS011;10349;48.666;8.948;2022-08-21T10:11:06;3.00;;;2.80;;
20379;SDS011;10349;48.666;8.948;2022-08-21T10:19:02;3.00;;;2.80;;
20379;SDS011;10349;48.666;8.948;2022-08-21T10:24:29;6.20;;;3.70;;
20379;SDS011;10349;48.666;8.948;2022-08-21T10:29:53;3.67;;;2.90;;
20379;SDS011;10349;48.666;8.948;2022-08-21T10:48:31;3.47;;;3.27;;
20379;SDS011;10349;48.666;8.948;2022-08-21T10:51:15;5.57;;;2.83;;
20379;SDS011;10349;48.666;8.948;2022-08-21T10:53:50;6.80;;;2.60;;
20379;SDS011;10349;48.666;8.948;2022-08-21T10:56:25;3.13;;;2.93;;
20379;SDS011;10349;48.666;8.948;2022-08-21T10:59:20;4.53;;;3.23;;
20379;SDS011;10349;48.666;8.948;2022-08-21T11:04:52;3.40;;;3.10;;
20379;SDS011;10349;48.666;8.948;2022-08-21T11:10:27;5.60;;;3.60;;
20379;SDS011;10349;48.666;8.948;2022-08-21T11:13:14;2.83;;;2.63;;
20379;SDS011;10349;48.666;8.948;2022-08-21T11:15:56;3.20;;;2.80;;
20379;SDS011;10349;48.666;8.948;2022-08-21T11:18:37;3.20;;;2.50;;
20379;SDS011;10349;48.666;8.948;2022-08-21T11:24:10;5.60;;;3.47;;
20379;SDS011;10349;48.666;8.948;2022-08-21T11:29:23;3.73;;;3.40;;
20379;SDS011;10349;48.666;8.948;2022-08-21T11:35:03;5.87;;;2.70;;
20379;SDS011;10349;48.666;8.948;2022-08-21T11:40:20;2.90;;;2.70;;
20379;SDS011;10349;48.666;8.948;2022-08-21T11:42:50;3.07;;;2.77;;
20379;SDS011;10349;48.666;8.948;2022-08-21T11:45:44;3.50;;;3.00;;
20379;SDS011;10349;48.666;8.948;2022-08-21T11:51:06;2.90;;;2.60;;
20379;SDS011;10349;48.666;8.948;2022-08-21T11:56:17;3.17;;;2.90;;
20379;SDS011;10349;48.666;8.948;2022-08-21T11:59:09;4.20;;;2.20;;
20379;SDS011;10349;48.666;8.948;2022-08-21T12:01:46;2.23;;;2.03;;
20379;SDS011;10349;48.666;8.948;2022-08-21T12:04:26;3.10;;;2.80;;
20379;SDS011;10349;48.666;8.948;2022-08-21T12:07:10;3.20;;;2.60;;
20379;SDS011;10349;48.666;8.948;2022-08-21T12:09:51;3.00;;;2.77;;
20379;SDS011;10349;48.666;8.948;2022-08-21T12:12:24;2.87;;;2.67;;
20379;SDS011;10349;48.666;8.948;2022-08-21T12:15:06;2.10;;;1.90;;
20379;SDS011;10349;48.666;8.948;2022-08-21T12:23:25;3.30;;;3.03;;
20379;SDS011;10349;48.666;8.948;2022-08-21T12:25:44;2.97;;;2.50;;
20379;SDS011;10349;48.666;8.948;2022-08-21T12:28:23;3.13;;;2.83;;
20379;SDS011;10349;48.666;8.948;2022-08-21T12:30:50;5.43;;;2.87;;
20379;SDS011;10349;48.666;8.948;2022-08-21T12:33:32;3.10;;;2.90;;
20379;SDS011;10349;48.666;8.948;2022-08-21T12:36:21;3.20;;;3.00;;
20379;SDS011;10349;48.666;8.948;2022-08-21T12:38:57;3.17;;;2.90;;
20379;SDS011;10349;48.666;8.948;2022-08-21T12:41:38;3.20;;;2.53;;
20379;SDS011;10349;48.666;8.948;2022-08-21T12:44:34;2.93;;;2.70;;
20379;SDS011;10349;48.666;8.948;2022-08-21T12:52:44;2.70;;;2.60;;
20379;SDS011;10349;48.666;8.948;2022-08-21T12:55:24;3.57;;;3.37;;
20379;SDS011;10349;48.666;8.948;2022-08-21T12:57:52;5.40;;;2.70;;
20379;SDS011;10349;48.666;8.948;2022-08-21T13:00:20;2.40;;;2.30;;
20379;SDS011;10349;48.666;8.948;2022-08-21T13:02:49;2.87;;;2.67;;
20379;SDS011;10349;48.666;8.948;2022-08-21T13:05:23;3.20;;;3.00;;
20379;SDS011;10349;48.666;8.948;2022-08-21T13:07:50;3.20;;;3.00;;
20379;SDS011;10349;48.666;8.948;2022-08-21T13:12:49;5.47;;;2.90;;
20379;SDS011;10349;48.666;8.948;2022-08-21T13:15:22;2.80;;;2.60;;
20379;SDS011;10349;48.666;8.948;2022-08-21T13:18:00;2.73;;;2.53;;
20379;SDS011;10349;48.666;8.948;2022-08-21T13:20:33;3.00;;;2.80;;
20379;SDS011;10349;48.666;8.948;2022-08-21T13:23:00;3.13;;;2.90;;
20379;SDS011;10349;48.666;8.948;2022-08-21T13:25:33;2.80;;;2.70;;
20379;SDS011;10349;48.666;8.948;2022-08-21T13:28:05;3.07;;;2.87;;
20379;SDS011;10349;48.666;8.948;2022-08-21T13:30:54;6.73;;;3.00;;
20379;SDS011;10349;48.666;8.948;2022-08-21T13:33:22;3.77;;;3.33;;
20379;SDS011;10349;48.666;8.948;2022-08-21T13:38:22;3.30;;;3.00;;
20379;SDS011;10349;48.666;8.948;2022-08-21T13:40:53;3.47;;;3.17;;
20379;SDS011;10349;48.666;8.948;2022-08-21T13:43:22;3.50;;;3.30;;
20379;SDS011;10349;48.666;8.948;2022-08-21T13:45:53;3.30;;;3.10;;
20379;SDS011;10349;48.666;8.948;2022-08-21T13:48:24;3.07;;;2.87;;
20379;SDS011;10349;48.666;8.948;2022-08-21T13:50:54;3.10;;;2.90;;
20379;SDS011;10349;48.666;8.948;2022-08-21T13:53:28;3.57;;;3.27;;
20379;SDS011;10349;48.666;8.948;2022-08-21T13:55:54;2.80;;;2.60;;
20379;SDS011;10349;48.666;8.948;2022-08-21T13:58:41;3.80;;;3.50;;
20379;SDS011;10349;48.666;8.948;2022-08-21T14:01:23;5.50;;;3.30;;
20379;SDS011;10349;48.666;8.948;2022-08-21T14:06:45;2.33;;;2.20;;
20379;SDS011;10349;48.666;8.948;2022-08-21T14:09:13;4.10;;;3.23;;
20379;SDS011;10349;48.666;8.948;2022-08-21T14:12:00;2.90;;;2.70;;
20379;SDS011;10349;48.666;8.948;2022-08-21T14:14:37;2.93;;;2.70;;
20379;SDS011;10349;48.666;8.948;2022-08-21T14:17:06;2.40;;;2.30;;
20379;SDS011;10349;48.666;8.948;2022-08-21T14:19:44;3.13;;;2.93;;
20379;SDS011;10349;48.666;8.948;2022-08-21T14:27:35;2.93;;;2.73;;
20379;SDS011;10349;48.666;8.948;2022-08-21T14:30:38;3.67;;;3.00;;
20379;SDS011;10349;48.666;8.948;2022-08-21T14:32:58;2.33;;;2.23;;
20379;SDS011;10349;48.666;8.948;2022-08-21T14:35:25;3.53;;;2.53;;
20379;SDS011;10349;48.666;8.948;2022-08-21T14:37:51;3.17;;;2.97;;
20379;SDS011;10349;48.666;8.948;2022-08-21T14:40:19;3.30;;;2.97;;
20379;SDS011;10349;48.666;8.948;2022-08-21T14:42:47;2.80;;;2.67;;
20379;SDS011;10349;48.666;8.948;2022-08-21T14:45:27;3.67;;;3.47;;
20379;SDS011;10349;48.666;8.948;2022-08-21T14:47:56;3.83;;;2.80;;
20379;SDS011;10349;48.666;8.948;2022-08-21T14:50:22;3.43;;;3.13;;
20379;SDS011;10349;48.666;8.948;2022-08-21T14:52:48;2.90;;;2.70;;
20379;SDS011;10349;48.666;8.948;2022-08-21T14:55:14;3.30;;;3.00;;
20379;SDS011;10349;48.666;8.948;2022-08-21T14:57:42;3.40;;;3.13;;
20379;SDS011;10349;48.666;8.948;2022-08-21T15:00:13;6.27;;;2.90;;
20379;SDS011;10349;48.666;8.948;2022-08-21T15:02:42;2.97;;;2.77;;
20379;SDS011;10349;48.666;8.948;2022-08-21T15:05:08;3.37;;;3.07;;
20379;SDS011;10349;48.666;8.948;2022-08-21T15:07:34;3.00;;;2.70;;
20379;SDS011;10349;48.666;8.948;2022-08-21T15:10:00;6.27;;;3.70;;
20379;SDS011;10349;48.666;8.948;2022-08-21T15:12:26;2.60;;;2.50;;
20379;SDS011;10349;48.666;8.948;2022-08-21T15:14:52;2.80;;;2.60;;
20379;SDS011;10349;48.666;8.948;2022-08-21T15:17:18;3.77;;;3.47;;
20379;SDS011;10349;48.666;8.948;2022-08-21T15:19:44;2.87;;;2.67;;
20379;SDS011;10349;48.666;8.948;2022-08-21T15:22:10;5.23;;;3.90;;
20379;SDS011;10349;48.666;8.948;2022-08-21T15:24:35;3.63;;;3.33;;
20379;SDS011;10349;48.666;8.948;2022-08-21T15:27:02;3.50;;;3.20;;
20379;SDS011;10349;48.666;8.948;2022-08-21T15:29:29;3.80;;;3.40;;
20379;SDS011;10349;48.666;8.948;2022-08-21T15:31:56;6.70;;;3.13;;
20379;SDS011;10349;48.666;8.948;2022-08-21T15:34:25;3.50;;;3.30;;
20379;SDS011;10349;48.666;8.948;2022-08-21T15:36:52;5.13;;;3.23;;
20379;SDS011;10349;48.666;8.948;2022-08-21T15:39:18;3.83;;;3.53;;
20379;SDS011;10349;48.666;8.948;2022-08-21T15:41:44;3.40;;;3.10;;
20379;SDS011;10349;48.666;8.948;2022-08-21T15:44:11;3.57;;;3.33;;
20379;SDS011;10349;48.666;8.948;2022-08-21T15:46:38;3.00;;;2.80;;
20379;SDS011;10349;48.666;8.948;2022-08-21T15:49:04;3.53;;;3.33;;
20379;SDS011;10349;48.666;8.948;2022-08-21T15:51:31;2.53;;;2.40;;
20379;SDS011;10349;48.666;8.948;2022-08-21T15:53:57;3.10;;;2.90;;
20379;SDS011;10349;48.666;8.948;2022-08-21T15:56:26;4.63;;;3.30;;
20379;SDS011;10349;48.666;8.948;2022-08-21T15:59:01;4.60;;;3.43;;
20379;SDS011;10349;48.666;8.948;2022-08-21T16:01:30;4.30;;;3.60;;
20379;SDS011;10349;48.666;8.948;2022-08-21T16:03:56;3.83;;;3.63;;
20379;SDS011;10349;48.666;8.948;2022-08-21T16:06:23;4.20;;;4.00;;
20379;SDS011;10349;48.666;8.948;2022-08-21T16:08:48;4.00;;;3.70;;
20379;SDS011;10349;48.666;8.948;2022-08-21T16:11:14;4.07;;;3.80;;
20379;SDS011;10349;48.666;8.948;2022-08-21T16:13:41;4.53;;;4.10;;
20379;SDS011;10349;48.666;8.948;2022-08-21T16:16:10;3.40;;;3.20;;
20379;SDS011;10349;48.666;8.948;2022-08-21T16:18:38;4.30;;;3.90;;
20379;SDS011;10349;48.666;8.948;2022-08-21T16:21:04;3.70;;;3.30;;
20379;SDS011;10349;48.666;8.948;2022-08-21T16:23:32;4.57;;;3.70;;
20379;SDS011;10349;48.666;8.948;2022-08-21T16:25:59;4.03;;;3.33;;
20379;SDS011;10349;48.666;8.948;2022-08-21T16:28:27;3.50;;;3.20;;
20379;SDS011;10349;48.666;8.948;2022-08-21T16:30:54;5.60;;;3.43;;
20379;SDS011;10349;48.666;8.948;2022-08-21T16:33:31;3.80;;;3.37;;
20379;SDS011;10349;48.666;8.948;2022-08-21T16:36:06;4.57;;;2.83;;
20379;SDS011;10349;48.666;8.948;2022-08-21T16:38:33;3.40;;;3.17;;
20379;SDS011;10349;48.666;8.948;2022-08-21T16:41:02;3.20;;;2.90;;